sensor_id;sensor_type;location;lat;lon;timestamp;P1;durP1;ratioP1;P2;durP2;ratioP2
11486;SDS011;10510;47.942;9.442;2023-02-28T00:00:46;10.68;;;6.13;;
11486;SDS011;10510;47.942;9.442;2023-02-28T00:02:46;9.35;;;5.07;;
11486;SDS011;10510;47.942;9.442;2023-02-28T00:04:47;10.48;;;5.47;;
11486;SDS011;10510;47.942;9.442;2023-02-28T00:06:52;8.38;;;4.50;;
11486;SDS011;10510;47.942;9.442;2023-02-28T00:08:53;6.68;;;4.00;;
11486;SDS011;10510;47.942;9.442;2023-02-28T00:10:53;8.15;;;4.82;;
11486;SDS011;10510;47.942;9.442;2023-02-28T00:12:54;15.32;;;5.18;;
11486;SDS011;10510;47.942;9.442;2023-02-28T00:14:58;7.53;;;4.15;;
11486;SDS011;10510;47.942;9.442;2023-02-28T00:16:59;9.27;;;4.50;;
11486;SDS011;10510;47.942;9.442;2023-02-28T00:18:59;8.60;;;4.60;;
11486;SDS011;10510;47.942;9.442;2023-02-28T00:20:59;9.50;;;5.10;;
11486;SDS011;10510;47.942;9.442;2023-02-28T00:22:59;9.82;;;4.63;;
11486;SDS011;10510;47.942;9.442;2023-02-28T00:25:00;8.20;;;4.38;;
11486;SDS011;10510;47.942;9.442;2023-02-28T00:27:00;8.45;;;4.57;;
11486;SDS011;10510;47.942;9.442;2023-02-28T00:29:00;8.52;;;4.70;;
11486;SDS011;10510;47.942;9.442;2023-02-28T00:31:00;8.40;;;4.47;;
11486;SDS011;10510;47.942;9.442;2023-02-28T00:33:01;7.30;;;3.92;;
11486;SDS011;10510;47.942;9.442;2023-02-28T00:35:01;6.63;;;3.65;;
11486;SDS011;10510;47.942;9.442;2023-02-28T00:37:07;10.38;;;4.53;;
11486;SDS011;10510;47.942;9.442;2023-02-28T00:39:09;9.02;;;4.28;;
11486;SDS011;10510;47.942;9.442;2023-02-28T00:41:09;7.65;;;3.92;;
11486;SDS011;10510;47.942;9.442;2023-02-28T00:43:09;9.57;;;4.53;;
11486;SDS011;10510;47.942;9.442;2023-02-28T00:45:10;7.45;;;4.28;;
11486;SDS011;10510;47.942;9.442;2023-02-28T00:47:10;7.30;;;4.05;;
11486;SDS011;10510;47.942;9.442;2023-02-28T00:49:10;8.63;;;4.05;;
11486;SDS011;10510;47.942;9.442;2023-02-28T00:51:10;7.95;;;4.60;;
11486;SDS011;10510;47.942;9.442;2023-02-28T00:53:11;8.07;;;3.92;;
11486;SDS011;10510;47.942;9.442;2023-02-28T00:55:11;8.48;;;4.03;;
11486;SDS011;10510;47.942;9.442;2023-02-28T00:57:11;6.32;;;3.80;;
11486;SDS011;10510;47.942;9.442;2023-02-28T00:59:15;7.13;;;4.53;;
11486;SDS011;10510;47.942;9.442;2023-02-28T01:01:16;8.00;;;4.45;;
11486;SDS011;10510;47.942;9.442;2023-02-28T01:03:17;8.80;;;4.38;;
11486;SDS011;10510;47.942;9.442;2023-02-28T01:05:18;7.97;;;3.33;;
11486;SDS011;10510;47.942;9.442;2023-02-28T01:07:18;8.38;;;4.28;;
11486;SDS011;10510;47.942;9.442;2023-02-28T01:09:19;9.63;;;4.00;;
11486;SDS011;10510;47.942;9.442;2023-02-28T01:11:19;9.13;;;4.32;;
11486;SDS011;10510;47.942;9.442;2023-02-28T01:13:19;8.20;;;4.05;;
11486;SDS011;10510;47.942;9.442;2023-02-28T01:15:20;9.00;;;4.47;;
11486;SDS011;10510;47.942;9.442;2023-02-28T01:17:20;6.38;;;3.80;;
11486;SDS011;10510;47.942;9.442;2023-02-28T01:19:21;13.25;;;4.32;;
11486;SDS011;10510;47.942;9.442;2023-02-28T01:21:21;7.25;;;3.90;;
11486;SDS011;10510;47.942;9.442;2023-02-28T01:23:22;7.10;;;3.85;;
11486;SDS011;10510;47.942;9.442;2023-02-28T01:25:23;7.32;;;4.25;;
11486;SDS011;10510;47.942;9.442;2023-02-28T01:27:24;7.07;;;3.78;;
11486;SDS011;10510;47.942;9.442;2023-02-28T01:29:24;9.45;;;4.15;;
11486;SDS011;10510;47.942;9.442;2023-02-28T01:31:24;8.63;;;4.75;;
11486;SDS011;10510;47.942;9.442;2023-02-28T01:33:25;8.40;;;3.85;;
11486;SDS011;10510;47.942;9.442;2023-02-28T01:35:26;8.50;;;4.25;;
11486;SDS011;10510;47.942;9.442;2023-02-28T01:37:26;8.35;;;4.03;;
11486;SDS011;10510;47.942;9.442;2023-02-28T01:39:27;7.30;;;4.40;;
11486;SDS011;10510;47.942;9.442;2023-02-28T01:41:28;6.82;;;3.42;;
11486;SDS011;10510;47.942;9.442;2023-02-28T01:43:32;6.75;;;3.85;;
11486;SDS011;10510;47.942;9.442;2023-02-28T01:45:53;10.10;;;3.80;;
11486;SDS011;10510;47.942;9.442;2023-02-28T01:48:04;7.90;;;4.13;;
11486;SDS011;10510;47.942;9.442;2023-02-28T01:50:09;7.00;;;3.78;;
11486;SDS011;10510;47.942;9.442;2023-02-28T01:52:19;8.55;;;4.07;;
11486;SDS011;10510;47.942;9.442;2023-02-28T01:54:22;6.90;;;3.72;;
11486;SDS011;10510;47.942;9.442;2023-02-28T01:56:27;10.60;;;4.13;;
11486;SDS011;10510;47.942;9.442;2023-02-28T01:58:33;12.70;;;4.40;;
11486;SDS011;10510;47.942;9.442;2023-02-28T02:00:35;6.93;;;3.83;;
11486;SDS011;10510;47.942;9.442;2023-02-28T02:02:35;12.52;;;5.03;;
11486;SDS011;10510;47.942;9.442;2023-02-28T02:04:38;6.80;;;3.97;;
11486;SDS011;10510;47.942;9.442;2023-02-28T02:06:43;7.03;;;3.63;;
11486;SDS011;10510;47.942;9.442;2023-02-28T02:08:45;8.02;;;3.60;;
11486;SDS011;10510;47.942;9.442;2023-02-28T02:10:47;8.07;;;3.72;;
11486;SDS011;10510;47.942;9.442;2023-02-28T02:12:55;5.50;;;3.30;;
11486;SDS011;10510;47.942;9.442;2023-02-28T02:17:28;5.40;;;3.15;;
11486;SDS011;10510;47.942;9.442;2023-02-28T02:24:24;7.30;;;3.88;;
11486;SDS011;10510;47.942;9.442;2023-02-28T02:36:24;8.13;;;3.72;;
11486;SDS011;10510;47.942;9.442;2023-02-28T02:39:04;7.45;;;3.30;;
11486;SDS011;10510;47.942;9.442;2023-02-28T02:41:21;9.25;;;4.57;;
11486;SDS011;10510;47.942;9.442;2023-02-28T02:44:07;7.22;;;4.25;;
11486;SDS011;10510;47.942;9.442;2023-02-28T02:46:04;6.63;;;3.20;;
11486;SDS011;10510;47.942;9.442;2023-02-28T02:48:11;10.32;;;4.45;;
11486;SDS011;10510;47.942;9.442;2023-02-28T02:50:17;12.38;;;4.30;;
11486;SDS011;10510;47.942;9.442;2023-02-28T02:52:29;9.63;;;4.15;;
11486;SDS011;10510;47.942;9.442;2023-02-28T02:54:37;11.45;;;4.60;;
11486;SDS011;10510;47.942;9.442;2023-02-28T02:56:40;10.18;;;3.25;;
11486;SDS011;10510;47.942;9.442;2023-02-28T02:58:43;11.50;;;4.30;;
11486;SDS011;10510;47.942;9.442;2023-02-28T03:00:48;8.48;;;4.10;;
11486;SDS011;10510;47.942;9.442;2023-02-28T03:02:53;8.93;;;4.47;;
11486;SDS011;10510;47.942;9.442;2023-02-28T03:04:57;8.20;;;3.97;;
11486;SDS011;10510;47.942;9.442;2023-02-28T03:07:00;8.52;;;4.18;;
11486;SDS011;10510;47.942;9.442;2023-02-28T03:09:00;19.33;;;6.47;;
11486;SDS011;10510;47.942;9.442;2023-02-28T03:11:02;8.75;;;4.00;;
11486;SDS011;10510;47.942;9.442;2023-02-28T03:13:23;9.23;;;4.63;;
11486;SDS011;10510;47.942;9.442;2023-02-28T03:15:50;8.73;;;3.90;;
11486;SDS011;10510;47.942;9.442;2023-02-28T03:18:09;7.20;;;3.67;;
11486;SDS011;10510;47.942;9.442;2023-02-28T03:25:33;8.30;;;3.65;;
11486;SDS011;10510;47.942;9.442;2023-02-28T03:30:17;8.77;;;4.10;;
11486;SDS011;10510;47.942;9.442;2023-02-28T03:32:28;8.85;;;4.25;;
11486;SDS011;10510;47.942;9.442;2023-02-28T03:34:34;7.45;;;4.07;;
11486;SDS011;10510;47.942;9.442;2023-02-28T03:36:39;11.15;;;4.38;;
11486;SDS011;10510;47.942;9.442;2023-02-28T03:40:59;9.48;;;3.83;;
11486;SDS011;10510;47.942;9.442;2023-02-28T03:43:08;10.15;;;3.92;;
11486;SDS011;10510;47.942;9.442;2023-02-28T03:45:18;8.52;;;4.25;;
11486;SDS011;10510;47.942;9.442;2023-02-28T03:47:24;8.05;;;4.35;;
11486;SDS011;10510;47.942;9.442;2023-02-28T03:49:34;10.60;;;3.97;;
11486;SDS011;10510;47.942;9.442;2023-02-28T03:51:39;10.13;;;4.00;;
11486;SDS011;10510;47.942;9.442;2023-02-28T03:53:45;7.13;;;4.03;;
11486;SDS011;10510;47.942;9.442;2023-02-28T03:55:56;7.38;;;4.07;;
11486;SDS011;10510;47.942;9.442;2023-02-28T03:58:03;9.55;;;5.13;;
11486;SDS011;10510;47.942;9.442;2023-02-28T04:00:13;9.43;;;4.32;;
11486;SDS011;10510;47.942;9.442;2023-02-28T04:02:18;7.30;;;4.13;;
11486;SDS011;10510;47.942;9.442;2023-02-28T04:04:18;8.55;;;3.90;;
11486;SDS011;10510;47.942;9.442;2023-02-28T04:06:20;7.15;;;4.38;;
11486;SDS011;10510;47.942;9.442;2023-02-28T04:08:22;12.25;;;4.40;;
11486;SDS011;10510;47.942;9.442;2023-02-28T04:10:22;10.75;;;4.82;;
11486;SDS011;10510;47.942;9.442;2023-02-28T04:12:23;11.05;;;4.47;;
11486;SDS011;10510;47.942;9.442;2023-02-28T04:14:23;6.22;;;3.67;;
11486;SDS011;10510;47.942;9.442;2023-02-28T04:16:24;7.78;;;4.18;;
11486;SDS011;10510;47.942;9.442;2023-02-28T04:18:24;10.00;;;4.78;;
11486;SDS011;10510;47.942;9.442;2023-02-28T04:20:25;13.85;;;5.53;;
11486;SDS011;10510;47.942;9.442;2023-02-28T04:22:25;7.45;;;4.30;;
11486;SDS011;10510;47.942;9.442;2023-02-28T04:24:28;8.18;;;4.88;;
11486;SDS011;10510;47.942;9.442;2023-02-28T04:26:32;8.85;;;4.25;;
11486;SDS011;10510;47.942;9.442;2023-02-28T04:28:36;7.70;;;4.47;;
11486;SDS011;10510;47.942;9.442;2023-02-28T04:30:37;10.82;;;5.25;;
11486;SDS011;10510;47.942;9.442;2023-02-28T04:32:38;10.75;;;5.30;;
11486;SDS011;10510;47.942;9.442;2023-02-28T04:34:38;12.88;;;5.63;;
11486;SDS011;10510;47.942;9.442;2023-02-28T04:36:39;10.70;;;5.32;;
11486;SDS011;10510;47.942;9.442;2023-02-28T04:38:40;11.68;;;5.57;;
11486;SDS011;10510;47.942;9.442;2023-02-28T04:40:40;11.10;;;6.47;;
11486;SDS011;10510;47.942;9.442;2023-02-28T04:42:40;13.57;;;5.57;;
11486;SDS011;10510;47.942;9.442;2023-02-28T04:44:41;11.25;;;5.93;;
11486;SDS011;10510;47.942;9.442;2023-02-28T04:46:41;11.07;;;5.80;;
11486;SDS011;10510;47.942;9.442;2023-02-28T04:48:42;9.70;;;4.50;;
11486;SDS011;10510;47.942;9.442;2023-02-28T04:50:44;10.98;;;5.82;;
11486;SDS011;10510;47.942;9.442;2023-02-28T04:52:44;17.30;;;7.70;;
11486;SDS011;10510;47.942;9.442;2023-02-28T04:54:44;16.63;;;7.15;;
11486;SDS011;10510;47.942;9.442;2023-02-28T04:56:45;15.40;;;7.20;;
11486;SDS011;10510;47.942;9.442;2023-02-28T04:58:45;11.75;;;6.00;;
11486;SDS011;10510;47.942;9.442;2023-02-28T05:00:45;13.00;;;6.75;;
11486;SDS011;10510;47.942;9.442;2023-02-28T05:02:46;13.90;;;6.78;;
11486;SDS011;10510;47.942;9.442;2023-02-28T05:04:46;10.85;;;6.80;;
11486;SDS011;10510;47.942;9.442;2023-02-28T05:06:46;14.20;;;7.47;;
11486;SDS011;10510;47.942;9.442;2023-02-28T05:08:47;13.15;;;6.53;;
11486;SDS011;10510;47.942;9.442;2023-02-28T05:10:47;17.17;;;7.72;;
11486;SDS011;10510;47.942;9.442;2023-02-28T05:12:48;13.68;;;7.13;;
11486;SDS011;10510;47.942;9.442;2023-02-28T05:14:48;19.20;;;7.40;;
11486;SDS011;10510;47.942;9.442;2023-02-28T05:16:48;18.73;;;9.00;;
11486;SDS011;10510;47.942;9.442;2023-02-28T05:18:48;15.05;;;7.20;;
11486;SDS011;10510;47.942;9.442;2023-02-28T05:20:49;18.73;;;8.25;;
11486;SDS011;10510;47.942;9.442;2023-02-28T05:22:49;17.20;;;7.95;;
11486;SDS011;10510;47.942;9.442;2023-02-28T05:24:49;18.75;;;8.00;;
11486;SDS011;10510;47.942;9.442;2023-02-28T05:26:50;15.07;;;7.60;;
11486;SDS011;10510;47.942;9.442;2023-02-28T05:28:52;13.80;;;7.38;;
11486;SDS011;10510;47.942;9.442;2023-02-28T05:30:53;12.77;;;6.78;;
11486;SDS011;10510;47.942;9.442;2023-02-28T05:32:53;12.13;;;6.57;;
11486;SDS011;10510;47.942;9.442;2023-02-28T05:34:54;10.50;;;5.50;;
11486;SDS011;10510;47.942;9.442;2023-02-28T05:36:54;14.13;;;7.22;;
11486;SDS011;10510;47.942;9.442;2023-02-28T05:38:54;14.20;;;7.35;;
11486;SDS011;10510;47.942;9.442;2023-02-28T05:40:54;12.25;;;6.38;;
11486;SDS011;10510;47.942;9.442;2023-02-28T05:42:56;13.70;;;6.80;;
11486;SDS011;10510;47.942;9.442;2023-02-28T05:44:56;13.38;;;6.10;;
11486;SDS011;10510;47.942;9.442;2023-02-28T05:46:56;12.85;;;6.45;;
11486;SDS011;10510;47.942;9.442;2023-02-28T05:48:57;41.33;;;12.13;;
11486;SDS011;10510;47.942;9.442;2023-02-28T05:51:00;13.48;;;5.95;;
11486;SDS011;10510;47.942;9.442;2023-02-28T05:53:00;13.80;;;6.55;;
11486;SDS011;10510;47.942;9.442;2023-02-28T05:55:01;12.48;;;6.65;;
11486;SDS011;10510;47.942;9.442;2023-02-28T05:57:01;19.92;;;7.72;;
11486;SDS011;10510;47.942;9.442;2023-02-28T05:59:01;13.77;;;5.95;;
11486;SDS011;10510;47.942;9.442;2023-02-28T06:01:19;23.95;;;9.25;;
11486;SDS011;10510;47.942;9.442;2023-02-28T06:03:20;14.38;;;6.90;;
11486;SDS011;10510;47.942;9.442;2023-02-28T06:05:21;14.75;;;7.03;;
11486;SDS011;10510;47.942;9.442;2023-02-28T06:07:21;15.32;;;6.75;;
11486;SDS011;10510;47.942;9.442;2023-02-28T06:09:22;19.13;;;7.93;;
11486;SDS011;10510;47.942;9.442;2023-02-28T06:11:22;25.52;;;9.43;;
11486;SDS011;10510;47.942;9.442;2023-02-28T06:13:26;13.82;;;7.10;;
11486;SDS011;10510;47.942;9.442;2023-02-28T06:15:27;14.02;;;7.28;;
11486;SDS011;10510;47.942;9.442;2023-02-28T06:17:27;20.35;;;8.93;;
11486;SDS011;10510;47.942;9.442;2023-02-28T06:19:27;14.65;;;8.23;;
11486;SDS011;10510;47.942;9.442;2023-02-28T06:21:28;18.02;;;7.72;;
11486;SDS011;10510;47.942;9.442;2023-02-28T06:23:29;22.77;;;7.40;;
11486;SDS011;10510;47.942;9.442;2023-02-28T06:25:30;18.05;;;9.10;;
11486;SDS011;10510;47.942;9.442;2023-02-28T06:27:31;19.55;;;8.30;;
11486;SDS011;10510;47.942;9.442;2023-02-28T06:29:33;16.10;;;7.18;;
11486;SDS011;10510;47.942;9.442;2023-02-28T06:31:34;15.40;;;7.38;;
11486;SDS011;10510;47.942;9.442;2023-02-28T06:33:35;33.28;;;9.38;;
11486;SDS011;10510;47.942;9.442;2023-02-28T06:35:36;19.55;;;8.15;;
11486;SDS011;10510;47.942;9.442;2023-02-28T06:37:36;12.95;;;6.78;;
11486;SDS011;10510;47.942;9.442;2023-02-28T06:39:37;15.55;;;6.25;;
11486;SDS011;10510;47.942;9.442;2023-02-28T06:41:37;20.98;;;8.95;;
11486;SDS011;10510;47.942;9.442;2023-02-28T06:43:39;28.05;;;10.52;;
11486;SDS011;10510;47.942;9.442;2023-02-28T06:45:41;35.80;;;12.43;;
11486;SDS011;10510;47.942;9.442;2023-02-28T06:47:43;37.88;;;13.77;;
11486;SDS011;10510;47.942;9.442;2023-02-28T06:49:43;48.70;;;14.57;;
11486;SDS011;10510;47.942;9.442;2023-02-28T06:51:45;34.33;;;12.05;;
11486;SDS011;10510;47.942;9.442;2023-02-28T06:53:45;20.90;;;8.43;;
11486;SDS011;10510;47.942;9.442;2023-02-28T06:55:46;33.15;;;10.88;;
11486;SDS011;10510;47.942;9.442;2023-02-28T06:57:46;45.17;;;15.05;;
11486;SDS011;10510;47.942;9.442;2023-02-28T06:59:46;38.97;;;12.70;;
11486;SDS011;10510;47.942;9.442;2023-02-28T07:01:47;33.70;;;12.10;;
11486;SDS011;10510;47.942;9.442;2023-02-28T07:03:47;19.38;;;8.13;;
11486;SDS011;10510;47.942;9.442;2023-02-28T07:05:52;45.28;;;15.00;;
11486;SDS011;10510;47.942;9.442;2023-02-28T07:07:52;21.27;;;9.02;;
11486;SDS011;10510;47.942;9.442;2023-02-28T07:09:52;16.92;;;7.72;;
11486;SDS011;10510;47.942;9.442;2023-02-28T07:11:53;17.80;;;7.65;;
11486;SDS011;10510;47.942;9.442;2023-02-28T07:13:53;28.90;;;8.27;;
11486;SDS011;10510;47.942;9.442;2023-02-28T07:15:55;29.08;;;10.10;;
11486;SDS011;10510;47.942;9.442;2023-02-28T07:17:57;23.35;;;8.25;;
11486;SDS011;10510;47.942;9.442;2023-02-28T07:19:57;19.92;;;8.93;;
11486;SDS011;10510;47.942;9.442;2023-02-28T07:21:57;20.63;;;8.20;;
11486;SDS011;10510;47.942;9.442;2023-02-28T07:23:58;15.77;;;8.00;;
11486;SDS011;10510;47.942;9.442;2023-02-28T07:25:58;16.90;;;8.40;;
11486;SDS011;10510;47.942;9.442;2023-02-28T07:27:58;13.95;;;7.00;;
11486;SDS011;10510;47.942;9.442;2023-02-28T07:29:59;20.13;;;7.95;;
11486;SDS011;10510;47.942;9.442;2023-02-28T07:32:01;21.08;;;8.10;;
11486;SDS011;10510;47.942;9.442;2023-02-28T07:34:01;13.57;;;7.07;;
11486;SDS011;10510;47.942;9.442;2023-02-28T07:36:09;20.27;;;7.93;;
11486;SDS011;10510;47.942;9.442;2023-02-28T07:38:15;17.65;;;7.38;;
11486;SDS011;10510;47.942;9.442;2023-02-28T07:40:15;21.02;;;8.65;;
11486;SDS011;10510;47.942;9.442;2023-02-28T07:42:17;41.28;;;9.60;;
11486;SDS011;10510;47.942;9.442;2023-02-28T07:44:18;23.35;;;8.60;;
11486;SDS011;10510;47.942;9.442;2023-02-28T07:46:18;19.45;;;8.98;;
11486;SDS011;10510;47.942;9.442;2023-02-28T07:48:21;26.98;;;10.50;;
11486;SDS011;10510;47.942;9.442;2023-02-28T07:50:21;27.20;;;8.63;;
11486;SDS011;10510;47.942;9.442;2023-02-28T07:52:22;13.88;;;7.68;;
11486;SDS011;10510;47.942;9.442;2023-02-28T07:54:26;23.02;;;8.68;;
11486;SDS011;10510;47.942;9.442;2023-02-28T07:56:26;29.13;;;9.43;;
11486;SDS011;10510;47.942;9.442;2023-02-28T07:58:27;18.30;;;8.95;;
11486;SDS011;10510;47.942;9.442;2023-02-28T08:00:28;17.70;;;8.52;;
11486;SDS011;10510;47.942;9.442;2023-02-28T08:02:29;18.13;;;8.82;;
11486;SDS011;10510;47.942;9.442;2023-02-28T08:04:31;15.80;;;7.95;;
11486;SDS011;10510;47.942;9.442;2023-02-28T08:06:32;18.50;;;8.07;;
11486;SDS011;10510;47.942;9.442;2023-02-28T08:08:32;21.98;;;9.18;;
11486;SDS011;10510;47.942;9.442;2023-02-28T08:10:33;20.35;;;9.27;;
11486;SDS011;10510;47.942;9.442;2023-02-28T08:12:34;25.42;;;9.30;;
11486;SDS011;10510;47.942;9.442;2023-02-28T08:14:34;20.67;;;9.43;;
11486;SDS011;10510;47.942;9.442;2023-02-28T08:16:35;20.58;;;9.48;;
11486;SDS011;10510;47.942;9.442;2023-02-28T08:18:35;16.35;;;9.05;;
11486;SDS011;10510;47.942;9.442;2023-02-28T08:20:36;17.17;;;8.02;;
11486;SDS011;10510;47.942;9.442;2023-02-28T08:22:36;19.55;;;9.13;;
11486;SDS011;10510;47.942;9.442;2023-02-28T08:24:36;30.08;;;8.98;;
11486;SDS011;10510;47.942;9.442;2023-02-28T08:26:36;25.55;;;9.55;;
11486;SDS011;10510;47.942;9.442;2023-02-28T08:28:37;21.55;;;8.82;;
11486;SDS011;10510;47.942;9.442;2023-02-28T08:30:37;33.50;;;9.85;;
11486;SDS011;10510;47.942;9.442;2023-02-28T08:32:37;29.73;;;9.98;;
11486;SDS011;10510;47.942;9.442;2023-02-28T08:34:38;18.80;;;9.07;;
11486;SDS011;10510;47.942;9.442;2023-02-28T08:36:40;21.70;;;8.73;;
11486;SDS011;10510;47.942;9.442;2023-02-28T08:38:41;30.98;;;9.35;;
11486;SDS011;10510;47.942;9.442;2023-02-28T08:40:41;21.50;;;8.10;;
11486;SDS011;10510;47.942;9.442;2023-02-28T08:42:42;27.77;;;9.23;;
11486;SDS011;10510;47.942;9.442;2023-02-28T08:44:42;18.58;;;9.27;;
11486;SDS011;10510;47.942;9.442;2023-02-28T08:46:43;21.42;;;8.45;;
11486;SDS011;10510;47.942;9.442;2023-02-28T08:48:43;20.35;;;8.63;;
11486;SDS011;10510;47.942;9.442;2023-02-28T08:50:44;17.33;;;8.52;;
11486;SDS011;10510;47.942;9.442;2023-02-28T08:52:44;38.38;;;9.48;;
11486;SDS011;10510;47.942;9.442;2023-02-28T08:54:44;19.83;;;8.85;;
11486;SDS011;10510;47.942;9.442;2023-02-28T08:56:45;21.20;;;9.50;;
11486;SDS011;10510;47.942;9.442;2023-02-28T08:58:47;19.55;;;8.57;;
11486;SDS011;10510;47.942;9.442;2023-02-28T09:00:48;15.32;;;8.32;;
11486;SDS011;10510;47.942;9.442;2023-02-28T09:02:48;16.35;;;7.68;;
11486;SDS011;10510;47.942;9.442;2023-02-28T09:04:49;19.83;;;9.55;;
11486;SDS011;10510;47.942;9.442;2023-02-28T09:06:49;23.45;;;9.55;;
11486;SDS011;10510;47.942;9.442;2023-02-28T09:08:49;17.67;;;8.68;;
11486;SDS011;10510;47.942;9.442;2023-02-28T09:10:50;18.08;;;8.73;;
11486;SDS011;10510;47.942;9.442;2023-02-28T09:12:51;22.13;;;9.57;;
11486;SDS011;10510;47.942;9.442;2023-02-28T09:14:53;21.85;;;9.90;;
11486;SDS011;10510;47.942;9.442;2023-02-28T09:16:53;40.22;;;10.43;;
11486;SDS011;10510;47.942;9.442;2023-02-28T09:18:54;14.35;;;8.55;;
11486;SDS011;10510;47.942;9.442;2023-02-28T09:20:54;17.02;;;9.18;;
11486;SDS011;10510;47.942;9.442;2023-02-28T09:22:55;20.23;;;8.98;;
11486;SDS011;10510;47.942;9.442;2023-02-28T09:24:55;26.73;;;9.60;;
11486;SDS011;10510;47.942;9.442;2023-02-28T09:26:56;21.25;;;9.57;;
11486;SDS011;10510;47.942;9.442;2023-02-28T09:28:56;19.77;;;9.68;;
11486;SDS011;10510;47.942;9.442;2023-02-28T09:30:58;19.17;;;9.05;;
11486;SDS011;10510;47.942;9.442;2023-02-28T09:32:59;24.73;;;9.23;;
11486;SDS011;10510;47.942;9.442;2023-02-28T09:34:59;20.27;;;9.93;;
11486;SDS011;10510;47.942;9.442;2023-02-28T09:36:59;28.77;;;10.75;;
11486;SDS011;10510;47.942;9.442;2023-02-28T09:38:59;19.20;;;9.18;;
11486;SDS011;10510;47.942;9.442;2023-02-28T09:41:00;21.40;;;9.43;;
11486;SDS011;10510;47.942;9.442;2023-02-28T09:43:04;27.70;;;9.55;;
11486;SDS011;10510;47.942;9.442;2023-02-28T09:45:11;18.20;;;9.27;;
11486;SDS011;10510;47.942;9.442;2023-02-28T09:47:53;19.55;;;8.73;;
11486;SDS011;10510;47.942;9.442;2023-02-28T09:49:48;20.95;;;10.05;;
11486;SDS011;10510;47.942;9.442;2023-02-28T09:51:57;25.15;;;11.23;;
11486;SDS011;10510;47.942;9.442;2023-02-28T09:54:00;16.88;;;9.23;;
11486;SDS011;10510;47.942;9.442;2023-02-28T09:56:02;21.20;;;9.43;;
11486;SDS011;10510;47.942;9.442;2023-02-28T09:58:11;20.10;;;10.05;;
11486;SDS011;10510;47.942;9.442;2023-02-28T10:00:22;21.85;;;10.25;;
11486;SDS011;10510;47.942;9.442;2023-02-28T10:02:47;47.00;;;14.18;;
11486;SDS011;10510;47.942;9.442;2023-02-28T10:04:54;17.67;;;9.30;;
11486;SDS011;10510;47.942;9.442;2023-02-28T10:07:21;19.92;;;10.05;;
11486;SDS011;10510;47.942;9.442;2023-02-28T10:09:36;18.35;;;9.48;;
11486;SDS011;10510;47.942;9.442;2023-02-28T10:11:37;21.23;;;10.00;;
11486;SDS011;10510;47.942;9.442;2023-02-28T10:15:58;21.67;;;10.43;;
11486;SDS011;10510;47.942;9.442;2023-02-28T10:18:04;18.85;;;9.02;;
11486;SDS011;10510;47.942;9.442;2023-02-28T10:22:20;23.10;;;10.65;;
11486;SDS011;10510;47.942;9.442;2023-02-28T10:26:39;28.85;;;11.98;;
11486;SDS011;10510;47.942;9.442;2023-02-28T10:28:43;21.52;;;8.77;;
11486;SDS011;10510;47.942;9.442;2023-02-28T10:30:46;22.08;;;11.05;;
11486;SDS011;10510;47.942;9.442;2023-02-28T10:32:51;24.52;;;10.93;;
11486;SDS011;10510;47.942;9.442;2023-02-28T10:37:09;52.83;;;16.20;;
11486;SDS011;10510;47.942;9.442;2023-02-28T10:41:34;22.65;;;11.25;;
11486;SDS011;10510;47.942;9.442;2023-02-28T10:43:42;34.20;;;15.13;;
11486;SDS011;10510;47.942;9.442;2023-02-28T10:48:00;18.63;;;8.63;;
11486;SDS011;10510;47.942;9.442;2023-02-28T10:50:08;22.93;;;10.43;;
11486;SDS011;10510;47.942;9.442;2023-02-28T10:52:37;22.75;;;10.30;;
11486;SDS011;10510;47.942;9.442;2023-02-28T10:54:39;25.70;;;11.23;;
11486;SDS011;10510;47.942;9.442;2023-02-28T10:56:40;20.17;;;9.43;;
11486;SDS011;10510;47.942;9.442;2023-02-28T10:58:44;18.30;;;9.43;;
11486;SDS011;10510;47.942;9.442;2023-02-28T11:00:52;21.08;;;10.80;;
11486;SDS011;10510;47.942;9.442;2023-02-28T11:02:52;18.95;;;9.75;;
11486;SDS011;10510;47.942;9.442;2023-02-28T11:04:53;18.38;;;8.88;;
11486;SDS011;10510;47.942;9.442;2023-02-28T11:06:57;20.23;;;10.10;;
11486;SDS011;10510;47.942;9.442;2023-02-28T11:08:59;18.45;;;9.32;;
11486;SDS011;10510;47.942;9.442;2023-02-28T11:11:05;24.75;;;10.80;;
11486;SDS011;10510;47.942;9.442;2023-02-28T11:13:06;26.08;;;10.75;;
11486;SDS011;10510;47.942;9.442;2023-02-28T11:15:18;23.05;;;10.95;;
11486;SDS011;10510;47.942;9.442;2023-02-28T11:17:25;24.83;;;10.95;;
11486;SDS011;10510;47.942;9.442;2023-02-28T11:19:28;21.52;;;10.32;;
11486;SDS011;10510;47.942;9.442;2023-02-28T11:21:35;20.73;;;11.07;;
11486;SDS011;10510;47.942;9.442;2023-02-28T11:23:40;33.33;;;13.85;;
11486;SDS011;10510;47.942;9.442;2023-02-28T11:25:45;44.78;;;15.68;;
11486;SDS011;10510;47.942;9.442;2023-02-28T11:27:52;34.95;;;12.27;;
11486;SDS011;10510;47.942;9.442;2023-02-28T11:29:54;29.10;;;13.80;;
11486;SDS011;10510;47.942;9.442;2023-02-28T11:34:23;33.85;;;13.02;;
11486;SDS011;10510;47.942;9.442;2023-02-28T11:36:30;31.73;;;11.98;;
11486;SDS011;10510;47.942;9.442;2023-02-28T11:38:32;24.92;;;11.43;;
11486;SDS011;10510;47.942;9.442;2023-02-28T11:43:03;24.35;;;11.23;;
11486;SDS011;10510;47.942;9.442;2023-02-28T11:54:17;20.10;;;10.30;;
11486;SDS011;10510;47.942;9.442;2023-02-28T12:05:44;28.15;;;13.82;;
11486;SDS011;10510;47.942;9.442;2023-02-28T12:07:50;23.65;;;11.82;;
11486;SDS011;10510;47.942;9.442;2023-02-28T12:10:04;23.15;;;11.77;;
11486;SDS011;10510;47.942;9.442;2023-02-28T12:21:04;21.88;;;10.02;;
11486;SDS011;10510;47.942;9.442;2023-02-28T12:25:35;19.55;;;11.25;;
11486;SDS011;10510;47.942;9.442;2023-02-28T12:27:48;21.23;;;11.27;;
11486;SDS011;10510;47.942;9.442;2023-02-28T12:29:55;24.35;;;12.43;;
11486;SDS011;10510;47.942;9.442;2023-02-28T12:32:05;21.15;;;10.70;;
11486;SDS011;10510;47.942;9.442;2023-02-28T12:34:12;26.40;;;10.98;;
11486;SDS011;10510;47.942;9.442;2023-02-28T12:36:16;28.23;;;11.43;;
11486;SDS011;10510;47.942;9.442;2023-02-28T12:38:22;27.98;;;11.60;;
11486;SDS011;10510;47.942;9.442;2023-02-28T12:40:32;32.50;;;12.02;;
11486;SDS011;10510;47.942;9.442;2023-02-28T12:42:44;21.00;;;10.85;;
11486;SDS011;10510;47.942;9.442;2023-02-28T12:44:52;23.38;;;11.05;;
11486;SDS011;10510;47.942;9.442;2023-02-28T12:46:58;23.73;;;11.25;;
11486;SDS011;10510;47.942;9.442;2023-02-28T12:49:06;22.33;;;9.85;;
11486;SDS011;10510;47.942;9.442;2023-02-28T12:51:10;22.27;;;11.57;;
11486;SDS011;10510;47.942;9.442;2023-02-28T12:57:49;35.65;;;12.85;;
11486;SDS011;10510;47.942;9.442;2023-02-28T13:00:03;62.30;;;14.73;;
11486;SDS011;10510;47.942;9.442;2023-02-28T13:04:53;17.90;;;8.95;;
11486;SDS011;10510;47.942;9.442;2023-02-28T13:07:28;24.20;;;10.82;;
11486;SDS011;10510;47.942;9.442;2023-02-28T13:10:03;30.60;;;13.55;;
11486;SDS011;10510;47.942;9.442;2023-02-28T13:12:14;29.02;;;11.05;;
11486;SDS011;10510;47.942;9.442;2023-02-28T13:14:29;36.30;;;12.93;;
11486;SDS011;10510;47.942;9.442;2023-02-28T13:17:18;39.17;;;13.45;;
11486;SDS011;10510;47.942;9.442;2023-02-28T13:19:09;21.80;;;11.05;;
11486;SDS011;10510;47.942;9.442;2023-02-28T13:21:27;22.55;;;11.38;;
11486;SDS011;10510;47.942;9.442;2023-02-28T13:23:37;21.95;;;11.68;;
11486;SDS011;10510;47.942;9.442;2023-02-28T13:27:42;23.40;;;12.23;;
11486;SDS011;10510;47.942;9.442;2023-02-28T13:29:43;22.70;;;11.48;;
11486;SDS011;10510;47.942;9.442;2023-02-28T13:34:12;25.13;;;11.77;;
11486;SDS011;10510;47.942;9.442;2023-02-28T13:38:16;22.42;;;10.77;;
11486;SDS011;10510;47.942;9.442;2023-02-28T13:40:33;24.40;;;10.98;;
11486;SDS011;10510;47.942;9.442;2023-02-28T13:51:38;26.15;;;10.68;;
11486;SDS011;10510;47.942;9.442;2023-02-28T14:05:12;19.77;;;10.45;;